Glencoe, MN (55336)

9:21 PM CDT on October 22, 2014 (GMT -0500)
Glencoe Municipal | Change Station
CLOSE
Current Station
Airport
Location: Glencoe,
Elevation: 991 ft
Nearby Weather Stations

Elev 991 ft 44.76 °N, 94.09 °W | Updated 7 minutes ago

Scattered Clouds
Scattered Clouds
58 °F
Feels Like 58 °F
N
14
Wind Variable Wind from SSE
Gusts 17 mph

Today
High -- | Low -- °F
--% Chance of Precip.
Yesterday
High -- | Low -- °F
Precip. -- in
7:41 AM 6:20 PM
Waning Crescent, 1% visible
Pressure 30.01 in
Visibility 10.0 miles
Clouds Scattered Clouds 11000 ft
Dew Point 45 °F
Humidity 62%
Rainfall 0.00 in
Snow Depth Not available.
UV 0 out of 12
Pollen .10 out of 12
Ozone Good
PM2.5 Good
Flu Activity Sporadic
METAR KGYL 230214Z AUTO 15012G15KT 10SM SCT110 15/07 A3001 RMK AO2 T01450072

More Conditions Fewer Conditions

Pressure 30.01 in
Visibility 10.0 miles
Clouds Scattered Clouds 11000 ft
Dew Point 45 °F
Humidity 62%
Rainfall 0.00 in
Snow Depth Not available.
UV 0 out of 12
Pollen .10 out of 12
Ozone Good
PM2.5 Good
Flu Activity Sporadic
METAR KGYL 230214Z AUTO 15012G15KT 10SM SCT110 15/07 A3001 RMK AO2 T01450072

More Conditions Fewer Conditions

10-Day Weather Forecast

Almanac

Astronomy

Oct. 22, 2014 Rise Set
Actual Time 7:41 AM CDT 6:20 PM CDT
Civil Twilight 7:11 AM CDT 6:49 PM CDT
Nautical Twilight 6:37 AM CDT 7:24 PM CDT
Astronomical Twilight 6:03 AM CDT 7:57 PM CDT
Moon 6:20 AM CDT (10/22) 5:49 PM CDT (10/22)
Length of Visible Light 11h 38m
Length of Day
10h 38m
Tomorrow will be 2m 55s shorter.
Waning Crescent, 1% of the Moon is Illuminated
Today
Waning Crescent
Oct 23
New
Oct 30
First Quarter
Nov 6
Full
Nov 14
Last Quarter

Today's Extremes

State Highs State Lows

Community

WunderPhotos

Upload Photos

1,764,109 photos uploaded!

Nearby

Air Quality

  Air Quality AQ Index Pollutant
Yesterday Good
PM2.5
Yesterday Good
OZONE
Current Good
PM2.5
Current Good
OZONE
Wednesday Good
PM2.5
Thursday Good
PM2.5
Friday Good
PM2.5
Saturday Good
PM2.5
Sunday Moderate
PM2.5
Monday Moderate
PM2.5

Snow Depth

Station Depth Elevation
No new snow has been reported.

Earthquake Activity

City Distance Mag. Time & Date
No recent earthquake activity has been reported nearby.
Minimum magnitude displayed is 2.5.

Coastal Water Temperatures

Place Temperature
No Stations Reporting

Nearby Weather Stations